Tuesday, November 21, 2017, 10:51 PM EST

KFDK, Frederick, Frederick Municipal Airport

Location: Frederick, MD, United States Lat: 39.417
Local Time: 10:51 PM EST ( 3:51 GMT) Lon: -77.374
Time Zone: US/Eastern Elev: 301 ft

Show me the last for .
Show Decoded

2017-11-21 22:25 METAR KFDK 220325Z AUTO 19007KT 10SM CLR 12/03 A3003 RMK AO2 =
2017-11-21 22:05 METAR KFDK 220305Z AUTO 20008KT 10SM CLR 12/03 A3003 RMK AO2 =
2017-11-21 21:45 METAR KFDK 220245Z AUTO 20008KT 10SM CLR 12/03 A3003 RMK AO2 =
2017-11-21 21:25 METAR KFDK 220225Z AUTO 20009G14KT 10SM CLR 12/03 A3004 RMK AO2 =
2017-11-21 21:05 METAR KFDK 220205Z AUTO 20010KT 10SM CLR 12/03 A3005 RMK AO2 =
2017-11-21 20:47 METAR KFDK 220147Z 21009KT 10SM SKC 13/03 A3004 =
2017-11-21 19:47 METAR KFDK 220047Z 21010KT 10SM SKC 13/04 A3004 =
2017-11-21 18:47 METAR KFDK 212347Z 20007KT 10SM SKC 13/04 A3004 =
2017-11-21 16:47 METAR KFDK 212147Z 20003KT 10SM SKC 13/M01 A3002 =
2017-11-21 15:47 METAR KFDK 212047Z 21010KT 10SM SKC 15/M02 A3003 =
2017-11-21 14:47 METAR KFDK 211947Z 21010KT 10SM SKC 14/M03 A3004 =
2017-11-21 13:47 METAR KFDK 211847Z 21010KT 10SM SKC 14/M03 A3004 =
2017-11-21 12:53 METAR KFDK 211753Z 21010KT 10SM SKC 13/M04 A3007 =
2017-11-21 11:47 METAR KFDK 211647Z 24006KT 10SM SKC 10/M02 A3011 =
2017-11-21 10:47 METAR KFDK 211547Z 25004KT 10SM SKC 08/M03 A3013 =
2017-11-21 09:47 METAR KFDK 211447Z 23004KT 10SM SKC 07/M02 A3016 =
2017-11-21 08:47 METAR KFDK 211347Z 00000KT 10SM SKC 04/M03 A3015 =
2017-11-21 07:47 METAR KFDK 211247Z 00000KT 10SM SKC M01/M02 A3015 =
2017-11-21 06:50 METAR KFDK 211150Z AUTO 00000KT 10SM CLR M01/M05 A3014 RMK AO2 =
2017-11-21 06:45 METAR KFDK 211145Z AUTO 00000KT 10SM CLR M01/M05 A3014 RMK AO2 =
2017-11-21 06:25 METAR KFDK 211125Z AUTO 00000KT 10SM CLR M01/M02 A3014 RMK AO2 =
2017-11-21 06:05 METAR KFDK 211105Z AUTO 00000KT 10SM CLR M01/M01 A3014 RMK AO2 =
2017-11-21 05:45 METAR KFDK 211045Z AUTO 00000KT 10SM CLR 00/M04 A3014 RMK AO2 =
2017-11-21 05:25 METAR KFDK 211025Z AUTO 00000KT 10SM CLR M01/M03 A3013 RMK AO2 =
2017-11-21 05:05 METAR KFDK 211005Z AUTO 18003KT 10SM CLR 00/M04 A3012 RMK AO2 =
2017-11-21 04:45 METAR KFDK 210945Z AUTO 00000KT 10SM CLR 00/M03 A3013 RMK AO2 =
2017-11-21 04:25 METAR KFDK 210925Z AUTO 00000KT 10SM CLR 00/M05 A3014 RMK AO2 =
2017-11-21 04:05 METAR KFDK 210905Z AUTO 19004KT 10SM CLR 00/M04 A3013 RMK AO2 =
2017-11-21 03:45 METAR KFDK 210845Z AUTO 00000KT 10SM CLR 00/M04 A3013 RMK AO2 =
2017-11-21 03:25 METAR KFDK 210825Z AUTO 23003KT 10SM CLR M01/M04 A3014 RMK AO2 =
2017-11-21 03:05 METAR KFDK 210805Z AUTO 20003KT 10SM CLR 00/M03 A3014 RMK AO2 =
2017-11-21 02:45 METAR KFDK 210745Z AUTO 22003KT 10SM CLR M01/M03 A3015 RMK AO2 =
2017-11-21 02:25 METAR KFDK 210725Z AUTO 17004KT 10SM CLR 00/M03 A3016 RMK AO2 =
2017-11-21 02:05 METAR KFDK 210705Z AUTO 00000KT 10SM CLR 00/M03 A3016 RMK AO2 =
2017-11-21 01:45 METAR KFDK 210645Z AUTO 00000KT 10SM CLR 00/M04 A3016 RMK AO2 =
2017-11-21 01:25 METAR KFDK 210625Z AUTO 00000KT 10SM CLR 01/M04 A3016 RMK AO2 =
2017-11-21 01:05 METAR KFDK 210605Z AUTO 00000KT 10SM CLR 01/M04 A3017 RMK AO2 =
2017-11-21 00:45 METAR KFDK 210545Z AUTO 00000KT 10SM CLR 00/M05 A3018 RMK AO2 =
2017-11-21 00:25 METAR KFDK 210525Z AUTO 00000KT 10SM CLR 01/M03 A3018 RMK AO2 =
2017-11-21 00:05 METAR KFDK 210505Z AUTO 00000KT 10SM CLR 00/M03 A3018 RMK AO2 =
2017-11-20 23:45 METAR KFDK 210445Z AUTO 00000KT 10SM CLR 01/M04 A3018 RMK AO2 =
2017-11-20 23:25 METAR KFDK 210425Z AUTO 00000KT 10SM CLR 01/M03 A3018 RMK AO2 =
2017-11-20 23:05 METAR KFDK 210405Z AUTO 16003KT 10SM CLR 03/M05 A3019 RMK AO2 =

Support USWX by starting your Amazon purchase here.